logo
Rechercher aéroport 
image banner adimage banner adimage banner ad
image banner ad

2CL1 - Brownsville

Situé à Brownsville, United States

ICAO - 2CL1, IATA -

Données fournies par Airmate  

Information générale

Coordonnées: N39°27'19" W121°17'30"
Élévation : 2120 feet MSL.
Variation magnétique : 16° East
Voir autres Aéroports à California

Données opérationnelles

Special qualification required
Heure actuelle UTC:
Heure actuelle locale:
Météo à : KOVE - Oroville Muni ( 29 km )
METAR: KOVE 281153Z AUTO 00000KT 10SM CLR 16/11 A2994 RMK AO2 SLP138 T01610111 10217 20161 58005
Voir NOTAMs / SUP AIP / TFR affectant cet aéroport [VIEW]
Fréquences de communication: [VIEW]

Pistes:

Identifiant RWYQFULongueur (ft)Largeur (ft)SurfaceLDA (ft)
06232620OTHER
24232620OTHER

Coordonnées de l'aéroport

Adresse: Brownsville United States

Vue satellite de 2CL1